Regione -
Località Giorno Ora Temp. Umid. Relat. Dew Point Press. Atm. Velocità Vento Direz. Vento Precip. Temp.
Min
Temp.
Max
 
 
Regione ABRUZZO
Località Giorno Ora Temp. Umid. Relat. Dew Point Press. Atm. Velocità Vento Direz. Vento Precip. Temp.
Min
Temp.
Max
San Salvo3 (CH) 13/12/17 06.10 10.7 °C 90 % 9.1 °C 1014.7 hPa 0.0 Km/h NW 0.0 mm  10.7 °C 16.3 °C
Vasto (CH) 12/12/17 21.35 16.9 °C 10 % -14.9 °C 1014.4 hPa 28.7 Km/h N 0.0 mm  16.8 °C 19.6 °C
 
 
Regione BASILICATA
Località Giorno Ora Temp. Umid. Relat. Dew Point Press. Atm. Velocità Vento Direz. Vento Precip. Temp.
Min
Temp.
Max
Miglionico (MT) 13/12/17 06.20 12.4 °C 63 % 5.5 °C 1016.6 hPa 12.9 Km/h SSW 0.0 mm  12.0 °C 12.9 °C
 
 
Regione CALABRIA
Località Giorno Ora Temp. Umid. Relat. Dew Point Press. Atm. Velocità Vento Direz. Vento Precip. Temp.
Min
Temp.
Max
Bisignano (CS) 13/12/17 06.13 13.2 °C 54 % 4.1 °C 1019.4 hPa 4.9 Km/h S 0.0 mm  12.3 °C 15.1 °C
 
 
Regione CAMPANIA
Località Giorno Ora Temp. Umid. Relat. Dew Point Press. Atm. Velocità Vento Direz. Vento Precip. Temp.
Min
Temp.
Max
Torre Annunziata (NA) 13/12/17 06.15 15.7 °C 86 % 13.4 °C 1018.9 hPa 21.1 Km/h W 0.0 mm  15.7 °C 16.7 °C
 
 
Regione EMILIA ROMAGNA
Località Giorno Ora Temp. Umid. Relat. Dew Point Press. Atm. Velocità Vento Direz. Vento Precip. Temp.
Min
Temp.
Max
Bellaria Igea Marina (RN) 13/12/17 06.13 6.1 °C 87 % 4.1 °C 1015.7 hPa 6.4 Km/h NW 0.0 mm  6.0 °C 10.1 °C
Bellaria Igea Marina2 (RN) 13/12/17 06.13 6.2 °C 88 % 4.3 °C 1015.5 hPa 4.8 Km/h NW 0.0 mm  6.1 °C 10.2 °C
Bellaria Igea Marina3 (RN) 12/12/17 08.59 11.6 °C 76 % 7.5 °C 1006.7 hPa 0.0 Km/h E 3.1 mm  11.5 °C 17.9 °C
Carpi (MO) 13/12/17 06.14 -0.1 °C 96 % -0.6 °C 1015.6 hPa 3.7 Km/h W 0.0 mm  -0.2 °C 2.4 °C
Filo di Argenta (FE) 13/12/17 06.15 2.5 °C 92 % 1.4 °C 1016.6 hPa 3.9 Km/h WSW 0.0 mm  2.3 °C 4.5 °C
Masiera di Bagnacavallo (RA) 12/12/17 11.49 9.3 °C 100 % 9.3 °C 1008.6 hPa 15.6 Km/h SE 0.0 mm  -9.3 °C 18.4 °C
Migliarino (FE) 13/12/17 06.10 3.6 °C 90 % 2.1 °C 1015.2 hPa 6.1 Km/h SW 0.0 mm  3.6 °C 5.6 °C
Ponte San Pellegrino (MO) 12/12/17 21.33 2.6 °C 93 % 1.6 °C 1003.9 hPa 5.0 Km/h NNW 0.0 mm  1.6 °C 5.2 °C
Riccione (RN) 13/12/17 05.55 9.2 °C 85 % 6.8 °C 1016.4 hPa 1.6 Km/h WNW 0.3 mm  9.2 °C 10.1 °C
Rimini (RN) 13/12/17 06.10 7.9 °C 80 % 4.7 °C 1016.4 hPa 0.0 Km/h WNW 0.0 mm  7.9 °C 10.4 °C
Rimini Zona Palas (RN) 13/12/17 05.58 7.2 °C 87 % 5.0 °C 1017.2 hPa 0.0 Km/h NW 0.0 mm  7.2 °C 10.4 °C
San Potito Lugo (RA) 11/12/17 18.35 13.4 °C 71 % 8.3 °C 1002.5 hPa 0.0 Km/h NW 2.4 mm  0.5 °C 13.4 °C
Santarcangelo di Romagna (RN) 13/12/17 06.10 6.6 °C 84 % 4.1 °C 1016.4 hPa 4.8 Km/h N 0.0 mm  6.6 °C 20.0 °C
Stiore - Monteveglio (BO) 13/12/17 04.50 3.6 °C 92 % 2.4 °C 1012.7 hPa 0.0 Km/h SSE 0.0 mm  3.0 °C 4.0 °C
 
 
Regione FRIULI V.G.
Località Giorno Ora Temp. Umid. Relat. Dew Point Press. Atm. Velocità Vento Direz. Vento Precip. Temp.
Min
Temp.
Max
Budoia (PN) 13/12/17 06.01 5.4 °C 92 % 4.2 °C 1014.9 hPa 4.8 Km/h NW 0.0 mm  5.1 °C 6.7 °C
Campoformido (UD) 13/12/17 06.12 8.1 °C 82 % 5.2 °C 1015.4 hPa 3.2 Km/h E 0.0 mm  7.9 °C 8.4 °C
Fogliano Redipuglia (GO) 13/12/17 06.01 9.9 °C 81 % 6.8 °C 1015.5 hPa 10.9 Km/h SSE 0.0 mm  9.7 °C 10.1 °C
Fontanafredda (PN) 13/12/17 00.55 4.4 °C 100 % 4.4 °C 1013.4 hPa 1.3 Km/h E 0.0 mm  4.2 °C 5.0 °C
Gorizia (GO) 11/12/17 11.32 8.7 °C 94 % 7.8 °C 1000.3 hPa 0.0 Km/h WNW 54.9 mm  1.0 °C 8.8 °C
Gradisca d'Isonzo (GO) 13/12/17 06.14 9.3 °C 85 % 6.9 °C 1016.6 hPa 0.0 Km/h NNE 0.0 mm  -10.0 °C 10.6 °C
Ovaro loc. Liariis (UD) 13/12/17 06.05 2.2 °C 95 % 1.5 °C 1017.5 hPa 0.0 Km/h --- 0.0 mm  2.2 °C 3.3 °C
Pordenone (PN) 12/12/17 09.35 10.9 °C 96 % 10.3 °C 1007.5 hPa 0.0 Km/h S 13.8 mm  10.5 °C 14.0 °C
Sacile (PN) 13/12/17 05.55 3.7 °C 98 % 3.4 °C 1014.4 hPa 1.6 Km/h NW 0.3 mm  3.6 °C 5.7 °C
Staranzano (GO) 13/12/17 05.20 10.4 °C 82 % 7.5 °C 1015.8 hPa 3.2 Km/h SSE 0.3 mm  10.1 °C 10.6 °C
 
 
Regione LAZIO
Località Giorno Ora Temp. Umid. Relat. Dew Point Press. Atm. Velocità Vento Direz. Vento Precip. Temp.
Min
Temp.
Max
Capodimonte (VT) 13/12/17 06.10 10.1 °C 98 % 9.8 °C 1018.2 hPa 0.0 Km/h N 0.8 mm  10.1 °C 10.4 °C
Caprarola Centro Storico (VT) 13/12/17 06.13 8.9 °C 100 % 8.9 °C 1019.0 hPa 0.0 Km/h SSW 3.4 mm  8.7 °C 9.5 °C
Civita Castellana (VT) 13/12/17 06.14 10.2 °C 93 % 9.1 °C 1018.4 hPa 5.2 Km/h SSW 3.6 mm  10.2 °C 10.9 °C
Marta (VT) 13/12/17 06.15 9.6 °C 95 % 8.8 °C 1014.8 hPa 0.0 Km/h WNW 2.9 mm  9.6 °C 9.9 °C
Pomezia (RM) 13/12/17 06.10 11.8 °C 95 % 11.0 °C 1017.2 hPa 0.0 Km/h S 7.8 mm  11.7 °C 12.4 °C
Ronciglione Centro (VT) 13/12/17 06.10 8.9 °C 98 % 8.6 °C 1017.0 hPa 2.6 Km/h S 4.1 mm  8.8 °C 9.7 °C
S. Lorenzo Nuovo (VT) 13/12/17 06.10 7.5 °C 77 % 3.7 °C 1014.4 hPa 0.0 Km/h WNW 2.1 mm  6.1 °C 8.4 °C
Tuscania (VT) 12/12/17 16.30 12.3 °C 90 % 10.7 °C 1013.8 hPa 5.2 Km/h W 4.4 mm  12.2 °C 15.5 °C
Valentano (VT) 13/12/17 06.10 8.2 °C 96 % 7.8 °C 1015.4 hPa 8.0 Km/h N 1.3 mm  8.1 °C 8.6 °C
Viterbo Santa Barbara (VT) 13/12/17 06.01 9.2 °C 95 % 8.4 °C 1016.5 hPa 20.9 Km/h SSW 2.8 mm  9.1 °C 9.4 °C
Vitorchiano Pallone (VT) 12/12/17 18.40 10.8 °C 90 % 9.2 °C 1013.0 hPa 6.4 Km/h WSW 0.3 mm  10.8 °C 15.3 °C
 
 
Regione LIGURIA
Località Giorno Ora Temp. Umid. Relat. Dew Point Press. Atm. Velocità Vento Direz. Vento Precip. Temp.
Min
Temp.
Max
Arenzano (GE) 13/12/17 06.13 8.6 °C 58 % 0.8 °C 1015.3 hPa 4.8 Km/h WNW 0.0 mm  8.4 °C 10.3 °C
Cosseria Lidora (SV) 13/12/17 06.15 -3.4 °C 94 % -4.2 °C 1017.7 hPa 0.0 Km/h --- 0.0 mm  -3.5 °C 0.2 °C
Genova Albaro (GE) 13/12/17 06.13 8.9 °C 62 % 2.0 °C 1018.0 hPa 3.3 Km/h N 0.0 mm  8.9 °C 11.2 °C
Genova Erzelli (GE) 13/12/17 06.02 7.3 °C 78 % 3.7 °C 1014.5 hPa 20.9 Km/h N 0.0 mm  7.3 °C 11.4 °C
Loano (SV) 13/12/17 06.15 8.2 °C 63 % 1.5 °C 1015.0 hPa 11.0 Km/h WNW 0.0 mm  7.5 °C 9.9 °C
Ortonovo (SP) 13/12/17 06.10 9.8 °C 72 % 5.0 °C 1011.1 hPa 12.8 Km/h SW 0.0 mm  9.7 °C 11.0 °C
Varese Ligure (SP) 13/12/17 06.10 5.8 °C 58 % -1.8 °C 1013.3 hPa 2.0 Km/h S 0.0 mm  5.2 °C 7.0 °C
 
 
Regione LOMBARDIA
Località Giorno Ora Temp. Umid. Relat. Dew Point Press. Atm. Velocità Vento Direz. Vento Precip. Temp.
Min
Temp.
Max
Besozzo (VA) 12/12/17 21.48 -0.1 °C 95 % -0.8 °C 1015.0 hPa 0.0 Km/h --- 16.6 mm  -0.1 °C 5.4 °C
Brebbia (VA) 13/12/17 06.00 2.8 °C 73 % -1.6 °C 1017.2 hPa 6.4 Km/h N 0.2 mm  -0.9 °C 2.8 °C
Calcinato (BS) 13/12/17 06.13 0.0 °C 94 % -0.8 °C 1018.7 hPa 6.4 Km/h N 0.0 mm  -0.4 °C 0.3 °C
Cassano Magnago (VA) 13/12/17 06.02 2.3 °C 75 % -1.7 °C 1016.1 hPa 0.0 Km/h NE 0.0 mm  1.5 °C 3.4 °C
Cavaria con Premezzo (VA) 13/12/17 06.13 1.7 °C 80 % -1.7 °C 1015.7 hPa 3.0 Km/h NE 0.0 mm  1.7 °C 3.2 °C
Dorno (PV) 13/12/17 06.14 -0.7 °C 98 % -0.9 °C 1017.4 hPa 4.8 Km/h W 0.0 mm  -0.7 °C 0.7 °C
Esine (BS) 13/12/17 06.14 1.0 °C 93 % 0.0 °C 1015.2 hPa 3.2 Km/h N 0.0 mm  0.8 °C 4.6 °C
Gaggiano (MI) 13/12/17 06.14 -1.2 °C 98 % -1.4 °C 1016.1 hPa 4.4 Km/h SW 0.0 mm  -1.2 °C 0.8 °C
Laxolo (BG) 13/12/17 06.18 -0.5 °C 84 % -2.9 °C 1009.6 hPa 0.0 Km/h N 0.7 mm  -0.5 °C 8.5 °C
Lesmo (MB) 13/12/17 06.15 -1.8 °C 92 % -2.9 °C 1016.7 hPa 0.0 Km/h --- 0.0 mm  -1.8 °C 1.3 °C
Lovere (BG) 13/12/17 06.01 3.1 °C 66 % -2.6 °C 1015.8 hPa 0.0 Km/h SW 0.0 mm  3.1 °C 5.4 °C
Malnate San Salvatore (VA) 13/12/17 06.15 -1.1 °C 86 % -3.1 °C 1017.3 hPa 0.0 Km/h NNE 0.0 mm  -1.1 °C 3.8 °C
Mezzana Bigli (PV) 13/12/17 06.10 -1.9 °C 97 % -2.3 °C 1016.3 hPa 0.0 Km/h SSE 0.0 mm  -1.9 °C -0.3 °C
Montagna in Valtellina (SO) 13/12/17 06.10 2.5 °C 90 % 1.0 °C 1018.5 hPa 0.0 Km/h NE 0.0 mm  1.8 °C 2.8 °C
Morbegno (SO) 13/12/17 06.10 2.3 °C 94 % 1.4 °C 1019.8 hPa 0.0 Km/h NNE 0.0 mm  1.3 °C 2.8 °C
Ostiano (CR) 13/12/17 06.08 0.9 °C 96 % 0.3 °C 1014.4 hPa 0.0 Km/h NW 0.0 mm  0.2 °C 0.9 °C
Rivalta sul Mincio (MN) 13/12/17 06.13 0.8 °C 96 % 0.2 °C 1016.6 hPa 10.8 Km/h W 0.0 mm  -0.2 °C 0.8 °C
Vigevano (PV) 10/12/17 23.51 0.0 °C 86 % -2.1 °C 999.1 hPa 0.0 Km/h N 0.0 mm  -1.7 °C 2.2 °C
 
 
Regione MARCHE
Località Giorno Ora Temp. Umid. Relat. Dew Point Press. Atm. Velocità Vento Direz. Vento Precip. Temp.
Min
Temp.
Max
Ancona (AN) 13/12/17 06.15 8.2 °C 96 % 7.6 °C 1017.3 hPa 0.0 Km/h E 6.8 mm  8.2 °C 9.4 °C
Barbara (AN) 13/12/17 06.13 7.6 °C 87 % 5.6 °C 1019.3 hPa 2.2 Km/h SE 1.0 mm  7.6 °C 8.6 °C
Ca' Gallo (PU) 13/12/17 05.55 8.6 °C 87 % 6.6 °C 1015.8 hPa 0.0 Km/h NNW 0.0 mm  8.2 °C 8.9 °C
Montelabbate (PU) 13/12/17 06.03 10.6 °C 78 % 7.1 °C 1015.8 hPa 2.1 Km/h SW 0.0 mm  8.8 °C 10.6 °C
San Benedetto del Tronto (AP) 12/12/17 22.30 12.0 °C 88 % 10.1 °C 1015.0 hPa 1.9 Km/h SW 0.0 mm  12.0 °C 19.0 °C
 
 
Regione MOSELLE
Località Giorno Ora Temp. Umid. Relat. Dew Point Press. Atm. Velocità Vento Direz. Vento Precip. Temp.
Min
Temp.
Max
Seremange Erzange (Moselle) 13/12/17 06.10 1.9 °C 88 % 0.1 °C 1015.4 hPa 3.2 Km/h ESE 0.0 mm  0.5 °C 1.6 °C
 
 
Regione PIEMONTE
Località Giorno Ora Temp. Umid. Relat. Dew Point Press. Atm. Velocità Vento Direz. Vento Precip. Temp.
Min
Temp.
Max
Borgofranco d'Ivrea (TO) 12/12/17 17.58 1.3 °C 85 % -0.9 °C 1012.2 hPa 0.0 Km/h ESE 5.2 mm  -5.0 °C 9.3 °C
Magnano (BI) 13/12/17 06.14 -3.4 °C 92 % -4.5 °C 1014.5 hPa 0.0 Km/h SW 0.0 mm  -3.5 °C -1.5 °C
Monasterolo Torinese (TO) 13/12/17 06.15 2.4 °C 70 % -2.5 °C 1013.6 hPa 0.0 Km/h --- 0.0 mm  1.1 °C 4.1 °C
Mongrando San Michele (BI) 13/12/17 06.10 0.7 °C 72 % -3.8 °C 1016.5 hPa 0.0 Km/h --- 0.0 mm  -0.2 °C 1.6 °C
Muzzano (BI) 13/12/17 06.00 2.9 °C 52 % -6.0 °C 1014.9 hPa 6.4 Km/h WNW 0.2 mm  2.9 °C 3.6 °C
Nichelino (TO) 13/12/17 06.20 -7.3 °C 88 % -9.0 °C 1018.0 hPa 0.0 Km/h --- 0.0 mm  -7.3 °C -3.9 °C
Novara (NO) 13/12/17 06.10 -3.4 °C 92 % -4.6 °C 1016.0 hPa 0.0 Km/h --- 0.0 mm  -3.4 °C -0.9 °C
Ostana (CN) 12/12/17 23.57 -1.8 °C 20 % -21.8 °C 1013.8 hPa 4.8 Km/h WNW 4.5 mm  -8.8 °C 2.2 °C
Parella (TO) 13/12/17 06.07 1.2 °C 69 % -3.8 °C 1015.1 hPa 1.6 Km/h WNW 0.0 mm  0.8 °C 2.4 °C
Pecetto Torinese (TO) 13/12/17 06.04 0.3 °C 71 % -4.3 °C 1013.4 hPa 0.0 Km/h N 0.0 mm  0.3 °C 4.7 °C
Pila Valsesia (VC) 13/12/17 06.10 -4.7 °C 86 % -6.7 °C 1017.0 hPa 1.6 Km/h W 0.0 mm  -4.7 °C -1.6 °C
Piovà Massaia (AT) 13/12/17 06.10 -3.2 °C 95 % -3.9 °C 1016.5 hPa 0.0 Km/h N 0.0 mm  -3.2 °C 0.1 °C
Pozzolo Formigaro (AL) 13/12/17 06.15 -2.9 °C 99 % -3.0 °C 1017.0 hPa 2.2 Km/h SSE 0.0 mm  -2.9 °C -1.4 °C
Pray (BI) 11/12/17 22.58 0.6 °C 97 % 0.2 °C 995.7 hPa 0.0 Km/h --- 6.4 mm  -1.4 °C 0.7 °C
Soriso (NO) 13/12/17 06.10 2.1 °C 72 % -2.5 °C 1016.8 hPa 1.6 Km/h WNW 0.3 mm  0.8 °C 4.3 °C
Torino Regio Parco (TO) 13/12/17 06.10 -1.3 °C 89 % -2.9 °C 1018.9 hPa 0.4 Km/h SW 0.0 mm  -1.3 °C 0.7 °C
Valenza (AL) 13/12/17 06.02 -0.9 °C 94 % -1.7 °C 1016.1 hPa 4.8 Km/h S 0.0 mm  -1.3 °C -0.1 °C
Viozene Toria (CN) 13/12/17 06.10 -0.4 °C 47 % -10.3 °C 1003.4 hPa 3.0 Km/h NNW 0.0 mm  -1.1 °C 0.4 °C
 
 
Regione PUGLIA
Località Giorno Ora Temp. Umid. Relat. Dew Point Press. Atm. Velocità Vento Direz. Vento Precip. Temp.
Min
Temp.
Max
Acquaviva delle Fonti (BA) 13/12/17 06.13 12.9 °C 71 % 7.8 °C 1017.4 hPa 6.1 Km/h SW 0.0 mm  10.8 °C 12.9 °C
S. Giovanni Rotondo (FG) 13/12/17 06.15 11.4 °C 75 % 7.1 °C 1017.3 hPa 6.4 Km/h SW 0.0 mm  9.6 °C 12.3 °C
Taranto (TA) 13/12/17 03.05 13.1 °C 94 % 12.2 °C 1015.3 hPa 5.8 Km/h S 0.0 mm  12.9 °C 13.5 °C
Torremaggiore (FG) 13/12/17 06.10 12.6 °C 80 % 9.2 °C 1015.9 hPa 11.4 Km/h ONO 0.0 mm  12.6 °C 15.8 °C
Vieste (FG) 13/12/17 06.11 14.8 °C 66 % 8.5 °C 1018.1 hPa 26.9 Km/h SSE 0.0 mm  13.8 °C 15.4 °C
 
 
Regione SARDEGNA
Località Giorno Ora Temp. Umid. Relat. Dew Point Press. Atm. Velocità Vento Direz. Vento Precip. Temp.
Min
Temp.
Max
Bitti (NU) 13/12/17 06.13 7.6 °C 85 % 5.3 °C 1018.3 hPa 13.0 Km/h S 0.5 mm  7.6 °C 8.6 °C
Bonorva (SS) 13/12/17 06.10 7.9 °C 93 % 6.9 °C 1019.6 hPa 1.6 Km/h S 4.6 mm  7.9 °C 8.7 °C
Borore (NU) 13/12/17 06.14 7.9 °C 95 % 7.1 °C 1019.2 hPa 3.5 Km/h WSW 6.0 mm  7.6 °C 9.1 °C
Iglesias (CI) 13/12/17 06.03 10.8 °C 85 % 8.4 °C 1021.6 hPa 0.0 Km/h WNW 2.3 mm  10.7 °C 11.9 °C
Oristano (OR) 13/12/17 06.10 11.4 °C 92 % 10.1 °C 1019.1 hPa 0.0 Km/h N 2.2 mm  11.4 °C 12.3 °C
Orosei (NU) 13/12/17 06.16 12.3 °C 73 % 7.6 °C 1018.8 hPa 3.2 Km/h ESE 0.0 mm  12.3 °C 14.2 °C
San Vito (CA) 13/12/17 06.11 13.2 °C 70 % 7.8 °C 1012.3 hPa 3.2 Km/h NW 0.0 mm  13.0 °C 14.5 °C
Sinnai (CA) 13/12/17 00.05 13.3 °C 79 % 9.8 °C 1019.1 hPa 0.0 Km/h WNW 0.0 mm  13.3 °C 13.4 °C
 
 
Regione SICILIA
Località Giorno Ora Temp. Umid. Relat. Dew Point Press. Atm. Velocità Vento Direz. Vento Precip. Temp.
Min
Temp.
Max
Barcellona P.G. Centro (ME) 13/12/17 06.13 13.1 °C 55 % 4.2 °C 1020.9 hPa 12.9 Km/h ESE 0.0 mm  12.1 °C 14.5 °C
Barcellona Pozzo di Gotto (ME) 13/12/17 06.13 13.8 °C 53 % 4.4 °C 1020.7 hPa 8.7 Km/h SSW 0.0 mm  13.1 °C 15.8 °C
Brolo c/da Parrazzà (ME) 13/12/17 06.20 14.2 °C 49 % 3.7 °C 1021.0 hPa 16.0 Km/h ESE 0.0 mm  14.0 °C 17.2 °C
Buccheri (SR) 13/12/17 06.12 7.0 °C 63 % 0.4 °C 1017.0 hPa 0.0 Km/h SSW 0.0 mm  7.0 °C 8.0 °C
Caltabellotta (AG) 13/12/17 06.10 9.7 °C 97 % 9.3 °C 1021.8 hPa 0.0 Km/h N 0.0 mm  9.1 °C 9.8 °C
Cammarata (AG) 13/12/17 06.13 9.8 °C 64 % 3.3 °C 1025.1 hPa 22.0 Km/h S 0.0 mm  9.7 °C 10.7 °C
Cefalù (PA) 13/12/17 00.18 16.4 °C 43 % 3.8 °C 1015.7 hPa 8.0 Km/h SW 0.0 mm  16.3 °C 16.9 °C
Mirabella Imbaccari (CT) 13/12/17 06.18 10.9 °C 93 % 9.8 °C 1023.8 hPa 0.0 Km/h NNW 0.2 mm  10.9 °C 11.6 °C
Pace del Mela (ME) 13/12/17 06.11 15.2 °C 36 % 0.2 °C 1021.3 hPa 2.8 Km/h E 0.0 mm  12.5 °C 17.9 °C
Pedara (CT) 13/12/17 06.10 11.5 °C 32 % -4.7 °C 1016.5 hPa 9.5 Km/h WSW 0.0 mm  11.1 °C 11.7 °C
Piraino contr. Fiumara (ME) 13/12/17 06.15 11.2 °C 64 % 4.7 °C 1021.2 hPa 2.0 Km/h NE 0.0 mm  10.2 °C 13.3 °C
San Cataldo (CL) 13/12/17 06.10 10.3 °C 96 % 9.7 °C 1018.0 hPa 0.4 Km/h NNW 0.0 mm  9.7 °C 10.3 °C
San Giovanni la Punta Trappeto (CT) 13/12/17 06.15 13.8 °C 47 % 2.7 °C 1021.6 hPa 8.0 Km/h WNW 0.0 mm  13.1 °C 13.8 °C
 
 
Regione TOSCANA
Località Giorno Ora Temp. Umid. Relat. Dew Point Press. Atm. Velocità Vento Direz. Vento Precip. Temp.
Min
Temp.
Max
Avenza-Carrara (MS) 13/12/17 06.10 9.3 °C 85 % 6.9 °C 1018.0 hPa 0.0 Km/h --- 0.0 mm  9.3 °C 11.1 °C
Bientina (PI) 13/12/17 06.13 7.3 °C 92 % 6.1 °C 1015.5 hPa 1.0 Km/h NW 4.8 mm  7.2 °C 9.5 °C
Carmignano loc. Seano (PO) 13/12/17 06.14 7.6 °C 93 % 6.5 °C 1017.0 hPa 0.7 Km/h SE 4.1 mm  7.6 °C 9.6 °C
Castelnuovo V.C. (PI) 13/12/17 06.11 5.6 °C 98 % 5.3 °C 1016.5 hPa 0.0 Km/h SW 1.8 mm  5.2 °C 6.4 °C
Castiglione della Pescaia Vaticino (GR) 13/12/17 06.02 7.6 °C 68 % 2.1 °C 1021.9 hPa 0.0 Km/h W 0.0 mm  7.6 °C 9.4 °C
Isola d'Elba Marina di Campo (LI) 12/12/17 04.45 14.4 °C 80 % 11.0 °C 582.9 hPa 4.8 Km/h NNE 0.0 mm  14.4 °C 18.1 °C
Massarosa (LU) 13/12/17 06.14 9.1 °C 82 % 6.2 °C 1003.8 hPa 2.5 Km/h E 0.3 mm  9.0 °C 11.5 °C
Montespertoli (FI) 13/12/17 05.56 8.0 °C 98 % 7.7 °C 1018.2 hPa 0.0 Km/h N 0.3 mm  8.0 °C 8.3 °C
Montopoli in val d'Arno Loc. Capanne (PI) 13/12/17 06.10 7.7 °C 94 % 6.8 °C 1016.2 hPa 2.5 Km/h ENE 1.4 mm  0.0 °C 0.0 °C
Pisa zona I Passi (PI) 13/12/17 06.10 10.4 °C 73 % 5.8 °C 1017.3 hPa 0.0 Km/h SW 0.0 mm  9.9 °C 11.1 °C
Reggello (FI) 13/12/17 06.10 6.6 °C 92 % 5.4 °C 1019.9 hPa 8.0 Km/h SO 2.4 mm  6.5 °C 7.9 °C
Torri (FI) 13/12/17 06.15 6.4 °C 96 % 5.8 °C 1016.9 hPa 1.6 Km/h SSE 5.6 mm  6.4 °C 7.3 °C
Torrita di Siena (SI) 13/12/17 06.10 7.5 °C 97 % 7.1 °C 1018.5 hPa 0.0 Km/h WNW 0.2 mm  7.4 °C 7.9 °C
 
 
Regione TRENTINO A. A.
Località Giorno Ora Temp. Umid. Relat. Dew Point Press. Atm. Velocità Vento Direz. Vento Precip. Temp.
Min
Temp.
Max
Ala (TN) 12/12/17 04.12 9.8 °C 92 % 8.6 °C 999.7 hPa 3.2 Km/h SW 16.8 mm  1.3 °C 9.9 °C
Avio (TN) 13/12/17 06.13 3.8 °C 88 % 2.0 °C 1015.3 hPa 0.0 Km/h SSW 0.0 mm  2.9 °C 4.1 °C
Besenello (TN) 13/12/17 06.13 4.9 °C 72 % 0.3 °C 1017.4 hPa 0.0 Km/h WSW 0.0 mm  1.7 °C 5.1 °C
Borgo Valsugana (TN) 13/12/17 06.00 0.2 °C 98 % -0.1 °C 1014.8 hPa 0.0 Km/h WNW 0.0 mm  0.2 °C 1.5 °C
Calliano (TN) 13/12/17 06.13 2.7 °C 83 % 0.1 °C 1016.3 hPa 3.2 Km/h NNE 0.0 mm  0.3 °C 4.7 °C
Gardolo (TN) 13/12/17 06.13 0.5 °C 93 % -0.5 °C 1017.9 hPa 0.0 Km/h NE 0.0 mm  0.2 °C 2.0 °C
Lavis (TN) 13/12/17 06.10 3.0 °C 90 % 1.7 °C 1016.5 hPa 9.6 Km/h NNW 0.0 mm  0.7 °C 3.0 °C
Margone (TN) 13/12/17 06.10 0.3 °C 86 % -1.7 °C 1018.3 hPa 6.3 Km/h NNE 0.0 mm  0.3 °C 1.9 °C
Martignano (TN) 13/12/17 06.15 3.1 °C 82 % 0.3 °C 1015.2 hPa 0.0 Km/h WNW 0.0 mm  2.2 °C 3.6 °C
Massone di Arco (TN) 13/12/17 06.14 3.8 °C 93 % 2.8 °C 1015.1 hPa 0.0 Km/h N 0.0 mm  2.6 °C 4.5 °C
Miola di Piné (TN) 13/12/17 06.10 0.3 °C 85 % -1.9 °C 1016.5 hPa 2.1 Km/h NE 0.0 mm  -1.0 °C 1.7 °C
Padergnone (TN) 13/12/17 06.00 7.2 °C 66 % 1.3 °C 1016.7 hPa 20.0 Km/h NNW 0.2 mm  0.9 °C 7.7 °C
Taio Mollaro (TN) 13/12/17 06.10 0.8 °C 94 % -0.1 °C 1017.3 hPa 0.0 Km/h ENE 0.0 mm  0.1 °C 0.9 °C
Trambileno (TN) 13/12/17 05.31 -0.3 °C 93 % -1.1 °C 1008.7 hPa 0.0 Km/h N 0.0 mm  -0.3 °C 1.2 °C
Trento (TN) 13/12/17 06.11 3.6 °C 87 % 1.7 °C 1016.1 hPa 6.4 Km/h NE 0.2 mm  1.8 °C 3.8 °C
Vattaro fraz. Pian dei Pradi (TN) 13/12/17 06.09 0.4 °C 87 % -1.5 °C 1016.8 hPa 1.1 Km/h SSE 0.0 mm  0.1 °C 1.4 °C
 
 
Regione UMBRIA
Località Giorno Ora Temp. Umid. Relat. Dew Point Press. Atm. Velocità Vento Direz. Vento Precip. Temp.
Min
Temp.
Max
Castiglione del Lago (PG) 13/12/17 06.10 7.6 °C 61 % 0.6 °C 1019.7 hPa 0.0 Km/h --- 1.2 mm  7.6 °C 8.4 °C
Foligno (PG) 13/12/17 06.10 8.0 °C 92 % 6.8 °C 1017.4 hPa 0.0 Km/h --- 13.2 mm  7.9 °C 8.3 °C
Orvieto (TR) 13/12/17 03.31 8.2 °C 92 % 7.0 °C 1014.6 hPa 0.0 Km/h WSW 3.1 mm  8.0 °C 8.4 °C
Todi (PG) 13/12/17 06.15 7.4 °C 86 % 5.2 °C 1016.6 hPa 0.0 Km/h N 7.2 mm  6.9 °C 7.4 °C
 
 
Regione VALLE DAOSTA
Località Giorno Ora Temp. Umid. Relat. Dew Point Press. Atm. Velocità Vento Direz. Vento Precip. Temp.
Min
Temp.
Max
Colle del Piccolo San Bernardo La Thuile (AO) 13/12/17 05.50 -11.9 °C 90 % -13.3 °C 1021.6 hPa 8.0 Km/h W 0.0 mm  -13.2 °C -10.7 °C
 
 
Regione VENETO
Località Giorno Ora Temp. Umid. Relat. Dew Point Press. Atm. Velocità Vento Direz. Vento Precip. Temp.
Min
Temp.
Max
Abano (PD) 13/12/17 06.15 2.7 °C 97 % 2.3 °C 1014.5 hPa 0.0 Km/h --- 0.0 mm  2.7 °C 5.9 °C
Alleghe Lago (BL) 13/12/17 06.14 -0.2 °C 95 % -0.9 °C 1014.1 hPa 5.8 Km/h NNE 0.0 mm  -0.5 °C 0.9 °C
Arquà Polesine (RO) 13/12/17 06.13 0.9 °C 96 % 0.3 °C 1017.0 hPa 4.8 Km/h WNW 0.2 mm  0.9 °C 3.9 °C
Arzignano loc. Castello (VI) 13/12/17 05.45 3.8 °C 90 % 2.3 °C 1014.5 hPa 0.9 Km/h NW 0.0 mm  3.4 °C 6.1 °C
Arzignano Pugnello (VI) 13/12/17 06.14 3.6 °C 89 % 2.2 °C 1013.4 hPa 3.0 Km/h W 0.0 mm  3.1 °C 6.6 °C
Arzignano San Bortolo (VI) 13/12/17 06.00 6.2 °C 80 % 3.0 °C 1012.8 hPa 9.7 Km/h W 0.0 mm  5.6 °C 7.6 °C
Arzignano Tezze (VI) 13/12/17 06.02 0.5 °C 100 % 0.5 °C 1014.8 hPa 0.0 Km/h NNW 0.0 mm  0.3 °C 2.3 °C
Asiago Rifugio Val Formica (VI) 13/12/17 06.01 -4.7 °C 93 % -5.6 °C 1015.8 hPa 5.6 Km/h N 0.0 mm  -5.6 °C -2.6 °C
Badia Calavena loc. San Valentino (VR) 13/12/17 06.13 4.5 °C 75 % 0.5 °C 1012.5 hPa 4.8 Km/h WNW 0.0 mm  4.3 °C 5.3 °C
Bardolino (VR) 13/12/17 06.13 6.4 °C 78 % 2.8 °C 1008.2 hPa 5.0 Km/h NE 0.0 mm  3.5 °C 6.7 °C
Bassano del Grappa (VI) 12/12/17 20.50 6.3 °C 90 % 4.8 °C 999.3 hPa 0.0 Km/h ENE 9.8 mm  5.6 °C 8.8 °C
Belluno Castion (BL) 13/12/17 06.00 0.4 °C 97 % 0.0 °C 1015.6 hPa 0.0 Km/h S 0.0 mm  0.3 °C 2.4 °C
Bresega (PD) 13/12/17 06.13 0.9 °C 95 % 0.6 °C 1015.5 hPa 3.0 Km/h SSW 0.0 mm  0.9 °C 4.4 °C
Brugine2 (PD) 13/12/17 06.09 1.4 °C 86 % -0.6 °C 1015.8 hPa 0.0 Km/h SSE 0.0 mm  1.4 °C 4.9 °C
Camposampiero (PD) 13/12/17 06.19 2.6 °C 98 % 2.3 °C 1015.0 hPa 0.0 Km/h W 0.0 mm  2.6 °C 2.7 °C
Caprino (VR) 13/12/17 06.13 3.2 °C 91 % 1.9 °C 1013.5 hPa 0.0 Km/h ENE 0.0 mm  3.0 °C 4.9 °C
Carceri (PD) 13/12/17 05.55 0.8 °C 95 % 0.0 °C 1014.8 hPa 4.8 Km/h SW 0.0 mm  0.8 °C 4.2 °C
Cartigliano (VI) 13/12/17 06.13 1.7 °C 97 % 1.2 °C 1014.5 hPa 0.0 Km/h W 0.0 mm  1.7 °C 4.4 °C
Cartura (PD) 13/12/17 06.14 0.9 °C 94 % 0.1 °C 1012.9 hPa 0.4 Km/h S 0.0 mm  0.9 °C 4.3 °C
Castel d'Azzano (VR) 13/12/17 06.15 0.6 °C 96 % 0.0 °C 921.8 hPa 1.6 Km/h SW 0.2 mm  0.6 °C 2.8 °C
Castelfranco Veneto (TV) 13/12/17 06.00 2.4 °C 100 % 2.4 °C 1015.6 hPa 0.0 Km/h --- 0.0 mm  2.4 °C 5.2 °C
Castelfranco Veneto2 (TV) 13/12/17 06.03 -573.3 °C 255 % -73.3 °C 1015.1 hPa 0.0 Km/h N 2.0 mm  -573.3 °C -573.3 °C
Castelgomberto (VI) 13/12/17 02.10 3.3 °C 91 % 1.9 °C 1013.3 hPa 0.0 Km/h N 0.0 mm  3.3 °C 4.3 °C
Cavazzale (VI) 12/12/17 18.15 5.7 °C 95 % 5.0 °C 1011.7 hPa 0.0 Km/h --- 6.8 mm  5.4 °C 7.7 °C
Cerea (VR) 12/12/17 21.25 3.0 °C 96 % 2.4 °C 1013.2 hPa 1.6 Km/h W 0.0 mm  2.4 °C 10.1 °C
Cerea2 (VR) 12/12/17 23.30 3.1 °C 88 % 1.3 °C 1011.1 hPa 4.0 Km/h WSW 0.0 mm  2.8 °C 4.4 °C
Cima Grappa (TV) 13/12/17 06.14 -3.6 °C 96 % -4.1 °C 1018.2 hPa 0.0 Km/h NNW 0.0 mm  -3.6 °C -2.1 °C
Cismon del Grappa loc. Corlo (VI) 13/12/17 06.14 0.9 °C 99 % 0.8 °C 1016.6 hPa 4.6 Km/h NE 0.0 mm  0.8 °C 3.7 °C
Cittadella (PD) 12/12/17 22.10 5.9 °C 91 % 4.5 °C 1012.0 hPa 0.0 Km/h SSW 4.6 mm  5.8 °C 9.9 °C
Cogollo del Cengio (VI) 13/12/17 06.11 3.4 °C 96 % 2.8 °C 1013.5 hPa 10.6 Km/h NW 0.0 mm  3.1 °C 4.5 °C
Colle S. Lucia Posalz (BL) 11/12/17 10.30 0.3 °C 99 % 0.2 °C 1007.0 hPa 0.0 Km/h SSW 0.0 mm  -3.4 °C 0.3 °C
Cologna Veneta Sant'Andrea (VR) 13/12/17 06.15 0.6 °C 55 % -7.4 °C 1015.7 hPa 0.0 Km/h SSW 0.2 mm  0.4 °C 4.1 °C
Colognola ai Colli (VR) 13/12/17 06.15 0.0 °C 96 % -0.6 °C 1016.8 hPa 0.0 Km/h --- 0.0 mm  0.0 °C 2.8 °C
Contrada Dosso Gervasio (VR) 12/12/17 18.00 4.4 °C 81 % 1.1 °C 1010.0 hPa 0.0 Km/h SW 0.8 mm  4.4 °C 7.2 °C
Costa di Vittorio Veneto (TV) 13/12/17 06.03 4.9 °C 93 % 3.9 °C 1013.8 hPa 0.0 Km/h ENE 0.0 mm  4.9 °C 6.5 °C
Crespano del Grappa (TV) 13/12/17 06.01 3.4 °C 87 % 1.4 °C 1015.1 hPa 0.0 Km/h NNE 0.0 mm  3.4 °C 4.7 °C
Dossobuono (VR) 13/12/17 06.13 0.1 °C 96 % -0.5 °C 1017.0 hPa 3.2 Km/h SSW 0.0 mm  -0.1 °C 3.7 °C
Erbezzo Passo Fittanze (VR) 13/12/17 06.00 -2.6 °C 95 % -3.3 °C 1018.5 hPa 13.7 Km/h WNW 0.0 mm  -2.6 °C 0.4 °C
Falzè di Piave (TV) 13/12/17 06.14 0.5 °C 98 % 0.2 °C 1016.4 hPa 0.0 Km/h --- 0.0 mm  0.4 °C 3.3 °C
Farra di Soligo (TV) 13/12/17 06.13 1.9 °C 90 % 0.4 °C 1019.5 hPa 0.0 Km/h SW 0.0 mm  1.7 °C 4.4 °C
Favaro Veneto (VE) 13/12/17 06.10 4.2 °C 90 % 2.7 °C 1015.5 hPa 0.0 Km/h --- 0.0 mm  4.1 °C 6.8 °C
Feltre Celarda (BL) 13/12/17 06.13 0.1 °C 97 % -0.3 °C 1014.5 hPa 0.0 Km/h WSW 0.0 mm  -0.6 °C 0.4 °C
Ferrara di M.B. (VR) 13/12/17 06.10 -1.4 °C 84 % -3.8 °C 1012.4 hPa 6.4 Km/h N 0.0 mm  -1.4 °C 1.6 °C
Gallio (VI) 13/12/17 06.00 -1.7 °C 93 % -2.7 °C 1015.5 hPa 0.0 Km/h N 0.0 mm  -1.7 °C 0.4 °C
Giazza (VR) 13/12/17 06.10 1.0 °C 89 % -0.6 °C 1015.0 hPa 0.0 Km/h N 0.0 mm  1.0 °C 2.3 °C
Legnago (VR) 13/12/17 06.15 1.0 °C 98 % 0.7 °C 1015.9 hPa 0.0 Km/h SW 0.0 mm  0.9 °C 3.8 °C
Lugagnano (VR) 13/12/17 06.13 0.3 °C 96 % 0.0 °C 1014.9 hPa 0.0 Km/h SW 0.0 mm  0.3 °C 3.2 °C
Lusiana Sciessere (VI) 13/12/17 06.03 3.9 °C 74 % -0.3 °C 1014.1 hPa 0.0 Km/h N 0.0 mm  3.8 °C 4.9 °C
Marano Vicentino2 (VI) 13/12/17 06.10 0.9 °C 97 % 0.5 °C 1014.2 hPa 0.0 Km/h N 0.0 mm  0.7 °C 2.4 °C
Marostica Valle San Floriano (VI) 13/12/17 06.13 3.5 °C 95 % 2.8 °C 1016.6 hPa 0.0 Km/h SW 0.2 mm  3.5 °C 5.1 °C
Mazzurega (VR) 13/12/17 06.07 4.3 °C 84 % 1.8 °C 1015.5 hPa 3.2 Km/h W 0.0 mm  4.0 °C 5.6 °C
Merlara (PD) 13/12/17 03.05 1.1 °C 94 % 0.3 °C 1014.6 hPa 4.8 Km/h WSW 0.0 mm  1.1 °C 2.9 °C
Molina (VR) 13/12/17 06.06 2.1 °C 80 % -1.0 °C 1015.8 hPa 2.6 Km/h SE 0.0 mm  1.5 °C 3.4 °C
Montebello Vicentino loc. Selva (VI) 13/12/17 06.10 5.5 °C 79 % 2.1 °C 1014.9 hPa 0.6 Km/h NNW 0.0 mm  3.8 °C 7.2 °C
Montecchio Maggiore La Valle (VI) 13/12/17 06.05 0.2 °C 1 % -49.9 °C 1009.7 hPa 0.0 Km/h N 0.0 mm  0.2 °C 3.7 °C
Montecchio Maggiore Sant'Urbano (VI) 13/12/17 06.04 4.1 °C 81 % 1.1 °C 1016.8 hPa 4.2 Km/h W 0.0 mm  3.9 °C 5.9 °C
Monteforte d'Alpone (VR) 13/12/17 06.15 0.8 °C 96 % 0.2 °C 1014.1 hPa 3.2 Km/h NE 0.0 mm  0.8 °C 4.9 °C
Montorio (VR) 13/12/17 06.06 0.8 °C 97 % 0.4 °C 1015.5 hPa 0.0 Km/h W 0.0 mm  0.8 °C 4.7 °C
Montorso Vicentino (VI) 13/12/17 06.10 5.3 °C 87 % 3.3 °C 1014.9 hPa 0.0 Km/h WNW 0.0 mm  4.9 °C 7.7 °C
Onara extraurbana (PD) 13/12/17 06.08 0.7 °C 36 % -12.7 °C 1008.1 hPa 0.0 Km/h WSW 0.0 mm  0.7 °C 4.1 °C
Oppeano (VR) 10/12/17 17.35 0.1 °C 89 % -1.5 °C 1003.1 hPa 0.0 Km/h ENE 0.0 mm  -4.6 °C 3.1 °C
Pastrengo (VR) 13/12/17 06.07 2.2 °C 91 % 0.9 °C 1016.5 hPa 0.0 Km/h NW 0.0 mm  2.2 °C 4.4 °C
Pastrengo Corné (VR) 13/12/17 06.15 0.0 °C 0 % 0.0 °C 1014.6 hPa 0.0 Km/h N 0.0 mm  4.1 °C 5.6 °C
Pedemonte (VR) 13/12/17 06.15 0.3 °C 95 % -0.4 °C 1015.1 hPa 0.0 Km/h N 0.2 mm  0.3 °C 2.7 °C
Pescantina Are (VR) 13/12/17 06.06 0.3 °C 98 % 0.0 °C 1015.1 hPa 0.0 Km/h W 0.3 mm  0.2 °C 2.8 °C
Pojana Maggiore Cagnano (VI) 13/12/17 06.09 1.3 °C 91 % 0.0 °C 1015.7 hPa 5.0 Km/h S 0.0 mm  1.2 °C 4.5 °C
Ponte San Nicolò (PD) 13/12/17 05.55 2.5 °C 94 % 1.6 °C 1015.1 hPa 0.0 Km/h S 0.0 mm  2.5 °C 5.9 °C
Rifugio Bocca di Selva (VR) 13/12/17 06.10 -1.4 °C 87 % -3.3 °C 1016.4 hPa 0.0 Km/h N 0.0 mm  -1.7 °C -0.7 °C
Rifugio Primaneve (VR) 13/12/17 06.00 -3.1 °C 97 % -3.5 °C 1016.8 hPa 12.9 Km/h SW 0.0 mm  -3.4 °C -2.6 °C
Romano d'Ezzelino Fellette (VI) 13/12/17 06.10 2.9 °C 89 % 1.3 °C 1018.6 hPa 5.9 Km/h NW 0.0 mm  2.9 °C 4.9 °C
Rosolina (RO) 13/12/17 06.00 3.0 °C 99 % 2.8 °C 1015.8 hPa 4.8 Km/h SW 0.0 mm  3.0 °C 6.0 °C
S. Giovanni Ilarione2 (VR) 13/12/17 06.15 2.0 °C 94 % 1.1 °C 1015.4 hPa 3.2 Km/h NW 0.2 mm  2.0 °C 4.2 °C
S. Giovanni Lupatoto (VR) 13/12/17 06.10 0.6 °C 96 % 0.0 °C 1016.2 hPa 0.0 Km/h --- 0.0 mm  0.6 °C 3.9 °C
S. Lorenzo di Vittorio Veneto (TV) 13/12/17 06.10 6.5 °C 82 % 3.7 °C 1015.3 hPa 14.5 Km/h N 0.3 mm  6.5 °C 8.4 °C
S. Maria di Zevio Loc. 3 Ponti (VR) 13/12/17 06.10 0.0 °C 0 % 0.0 °C 1017.8 hPa 0.0 Km/h N 0.0 mm  1.4 °C 4.7 °C
S. Maria Maddalena (RO) 13/12/17 06.05 1.8 °C 95 % 1.1 °C 1015.1 hPa 6.5 Km/h SW 0.0 mm  1.8 °C 3.9 °C
S. Martino Lupari (PD) 13/12/17 07.10 1.6 °C 97 % 1.2 °C 1016.1 hPa 0.0 Km/h --- 0.2 mm  1.6 °C 5.0 °C
S. Rocco di Villabalzana (VI) 13/12/17 06.13 4.7 °C 93 % 3.9 °C 1015.0 hPa 4.8 Km/h WSW 0.0 mm  4.3 °C 7.0 °C
Salcedo (VI) 13/12/17 06.10 4.2 °C 76 % 0.3 °C 1013.2 hPa 3.0 Km/h N 0.0 mm  4.2 °C 5.9 °C
San Nazario (VI) 13/12/17 06.01 5.2 °C 82 % 2.4 °C 1014.8 hPa 2.6 Km/h NE 0.3 mm  4.3 °C 5.8 °C
San Pietro in Cariano (VR) 13/12/17 06.09 1.9 °C 93 % 0.9 °C 1014.9 hPa 0.0 Km/h E 0.0 mm  1.9 °C 5.5 °C
San Zeno di Mont. Loc. Castello (VR) 13/12/17 06.10 4.2 °C 69 % -1.1 °C 1014.2 hPa 6.0 Km/h W 0.0 mm  3.7 °C 5.3 °C
Sarcedo (VI) 13/12/17 06.10 2.6 °C 95 % 1.9 °C 1014.2 hPa 0.0 Km/h WSW 0.0 mm  2.2 °C 5.0 °C
Schio (VI) 13/12/17 06.00 3.7 °C 89 % 2.1 °C 1016.5 hPa 4.8 Km/h NW 0.0 mm  3.6 °C 5.1 °C
Schio Monte Magré (VI) 13/12/17 06.11 3.4 °C 91 % 2.1 °C 0.0 hPa 0.0 Km/h W 0.0 mm  3.4 °C 4.3 °C
Soave Borgo Bassano (VR) 13/12/17 06.15 1.0 °C 97 % 0.6 °C 1016.1 hPa 0.0 Km/h WNW 0.0 mm  1.0 °C 4.1 °C
Sona Loc. La Colombara (VR) 13/12/17 06.00 1.2 °C 97 % 0.6 °C 1011.9 hPa 2.0 Km/h SSE 0.0 mm  0.7 °C 4.8 °C
Tombolo (PD) 13/12/17 06.11 1.3 °C 97 % 0.9 °C 1016.1 hPa 0.0 Km/h SSW 0.2 mm  1.3 °C 4.6 °C
Tregnago Loc. Centro (VR) 13/12/17 06.15 6.2 °C 73 % 1.7 °C 1009.2 hPa 0.0 Km/h NNW 0.0 mm  6.1 °C 7.4 °C
Treviso (TV) 13/12/17 06.09 2.9 °C 98 % 2.6 °C 1016.1 hPa 0.0 Km/h S 0.0 mm  2.5 °C 6.3 °C
Val Lastaro (VI) 13/12/17 04.04 -0.9 °C 98 % -1.1 °C 1016.8 hPa 0.0 Km/h N 0.0 mm  -4.3 °C -0.9 °C
Valdobbiadene San Pietro di Barbozza (TV) 13/12/17 06.10 7.3 °C 79 % 3.9 °C 1013.9 hPa 1.6 Km/h WNW 0.0 mm  6.9 °C 8.3 °C
Valli del Pasubio loc. Gisbenti (VI) 13/12/17 06.10 0.8 °C 96 % 0.2 °C 972.0 hPa 0.0 Km/h --- 0.0 mm  0.8 °C 2.3 °C
Vazzo Roveré Veronese (VR) 13/12/17 06.11 3.1 °C 75 % -0.9 °C 1012.7 hPa 4.8 Km/h NNW 0.0 mm  2.7 °C 3.6 °C
Verona Bgo Venezia (iz3sly) (VR) 13/12/17 06.01 0.8 °C 92 % -0.3 °C 1014.1 hPa 0.0 Km/h NNE 0.0 mm  0.8 °C 4.3 °C
Vestenanova (VR) 13/12/17 06.10 3.9 °C 73 % -0.5 °C 1019.1 hPa 3.6 Km/h N 0.0 mm  3.2 °C 6.6 °C
Vicenza Campedello (VI) 13/12/17 06.17 0.9 °C 98 % 0.6 °C 1016.0 hPa 0.0 Km/h W 0.0 mm  0.9 °C 2.7 °C
Vicenza Moracchino (VI) 09/12/17 21.49 1.8 °C 45 % -8.9 °C 1014.2 hPa 8.0 Km/h SW 0.0 mm  1.7 °C 8.8 °C
Vicenza Pecori Giraldi (VI) 13/12/17 06.00 1.9 °C 100 % 1.9 °C 1022.2 hPa 0.0 Km/h SSW 0.0 mm  1.8 °C 4.8 °C
Vicenza S. Lazzaro (VI) 13/12/17 06.11 2.0 °C 94 % 1.1 °C 1014.9 hPa 0.0 Km/h SW 0.2 mm  2.0 °C 5.1 °C
Vicenza San Bortolo (VI) 10/12/17 21.34 -0.4 °C 96 % -1.0 °C 1006.7 hPa 0.0 Km/h NW 0.0 mm  -4.1 °C 1.7 °C
Vicenza San Gaetano (VI) 12/12/17 22.45 5.7 °C 97 % 5.3 °C 1013.4 hPa 0.0 Km/h WSW 10.4 mm  5.6 °C 8.0 °C
Vidor (TV) 13/12/17 06.16 1.3 °C 93 % 0.3 °C 1013.9 hPa 0.0 Km/h W 0.0 mm  0.8 °C 3.2 °C
Vigasio (VR) 13/12/17 06.10 0.9 °C 97 % 0.5 °C 1014.3 hPa 1.6 Km/h S 0.0 mm  0.9 °C 2.7 °C
Vittorio Veneto (TV) 13/12/17 00.20 7.1 °C 86 % 4.9 °C 1013.4 hPa 0.0 Km/h NNE 0.0 mm  7.1 °C 7.4 °C
Vittorio Veneto Parco Fenderl (TV) 13/12/17 00.20 7.6 °C 83 % 4.8 °C 1014.1 hPa 0.0 Km/h NW 0.0 mm  6.7 °C 7.6 °C
Volpago del Montello (TV) 13/12/17 03.30 3.4 °C 96 % 2.9 °C 1014.5 hPa 0.0 Km/h --- 0.0 mm  3.4 °C 5.6 °C
 
 
 
(*) = Precipitazioni nelle ultime 24h.
Dati non aggiornati nell'ultima ora.
   
In collaborazione con: